Time;durP1;ratioP1;P1;durP2;ratioP2;P2;SDS_P1;SDS_P2;PMS_P1;PMS_P2;Temp;Humidity;BMP_temperature;BMP_pressure;BME280_temperature;BME280_humidity;BME280_pressure;Samples;Min_cycle;Max_cycle;Signal;HPM_P1;HPM_P2
2023/10/01 00:00:26;;;;;;;20.23;10.25;;;;;;;16.94;64.83;99562.19;5098179;28;20020;-44
2023/10/01 00:02:52;;;;;;;16.73;8.60;;;;;;;16.57;66.20;99564.72;5098174;28;20145;-44
2023/10/01 00:05:21;;;;;;;22.05;9.57;;;;;;;16.32;67.31;99559.44;5098169;28;20036;-44
2023/10/01 00:07:49;;;;;;;16.70;9.00;;;;;;;16.12;68.03;99556.16;5098382;28;20426;-44
2023/10/01 00:10:15;;;;;;;18.58;9.75;;;;;;;15.88;68.76;99555.91;5097848;28;20040;-44
2023/10/01 00:12:44;;;;;;;19.60;9.50;;;;;;;15.81;69.76;99554.31;5098098;28;20097;-47
2023/10/01 00:15:16;;;;;;;21.95;9.30;;;;;;;15.78;69.89;99551.06;5098593;28;20434;-47
2023/10/01 00:17:48;;;;;;;24.10;9.68;;;;;;;15.75;70.36;99555.97;5096946;28;20062;-47
2023/10/01 00:22:41;;;;;;;23.83;10.32;;;;;;;15.81;70.75;99554.31;5098041;28;20050;-46
2023/10/01 00:25:07;;;;;;;23.85;10.93;;;;;;;15.73;71.09;99552.72;5098179;28;20059;-46
2023/10/01 00:27:33;;;;;;;20.35;10.13;;;;;;;15.66;71.35;99558.03;5096711;28;20032;-47
2023/10/01 00:29:59;;;;;;;20.35;9.05;;;;;;;15.78;72.15;99553.72;5094681;28;20478;-47
2023/10/01 00:32:28;;;;;;;25.35;10.43;;;;;;;16.11;71.54;99551.88;5094741;28;20039;-47
2023/10/01 00:34:57;;;;;;;20.58;10.45;;;;;;;16.45;71.01;99558.53;5094912;28;20089;-47
2023/10/01 00:37:23;;;;;;;22.25;9.65;;;;;;;17.01;70.18;99566.59;5094575;28;20024;-47
2023/10/01 00:39:54;;;;;;;25.00;10.52;;;;;;;17.46;68.29;99568.94;5094680;28;20013;-46
2023/10/01 00:42:21;;;;;;;24.38;9.68;;;;;;;17.83;66.56;99567.03;5094546;28;20093;-47
2023/10/01 00:44:47;;;;;;;32.03;11.40;;;;;;;17.93;65.27;99561.19;5094742;28;20093;-46
2023/10/01 00:47:14;;;;;;;21.50;10.68;;;;;;;18.16;64.63;99555.91;5094714;28;20074;-47
2023/10/01 00:49:47;;;;;;;18.13;9.90;;;;;;;18.18;63.42;99558.34;5094359;28;20012;-47
2023/10/01 00:52:19;;;;;;;18.17;10.27;;;;;;;18.12;63.55;99561.91;5094397;28;20394;-47
2023/10/01 00:54:48;;;;;;;24.75;10.70;;;;;;;18.07;63.58;99567.91;5093036;28;20026;-47
2023/10/01 00:57:17;;;;;;;22.52;9.55;;;;;;;18.08;63.44;99566.88;5094281;28;20047;-47
2023/10/01 00:59:46;;;;;;;22.15;10.20;;;;;;;17.98;63.11;99563.97;5094213;28;20024;-47
2023/10/01 01:02:15;;;;;;;18.63;9.95;;;;;;;17.85;63.30;99558.81;5094282;28;20024;-47
2023/10/01 01:04:45;;;;;;;22.25;9.60;;;;;;;17.81;63.51;99557.63;5094605;28;20050;-47
2023/10/01 01:07:20;;;;;;;22.20;10.20;;;;;;;17.72;63.74;99555.28;5094000;28;20070;-47
2023/10/01 01:09:48;;;;;;;20.98;9.43;;;;;;;17.64;63.21;99550.31;5092707;28;20051;-47
2023/10/01 01:12:15;;;;;;;18.17;9.77;;;;;;;17.42;63.50;99547.31;5094267;28;20141;-46
2023/10/01 01:14:44;;;;;;;20.77;9.65;;;;;;;17.17;63.72;99540.28;5093831;28;20052;-47
2023/10/01 01:17:11;;;;;;;16.48;8.93;;;;;;;16.74;64.35;99533.19;5093838;28;20393;-47
2023/10/01 01:19:37;;;;;;;25.45;9.68;;;;;;;16.57;66.12;99540.88;5093709;28;20035;-46
2023/10/01 01:22:03;;;;;;;19.15;9.48;;;;;;;16.66;66.39;99543.25;5092486;28;20035;-46
2023/10/01 01:24:30;;;;;;;20.77;10.40;;;;;;;16.48;66.11;99536.91;5093703;28;20397;-47
2023/10/01 01:27:05;;;;;;;19.42;9.07;;;;;;;16.31;66.58;99539.28;5093665;28;20020;-46
2023/10/01 01:29:38;;;;;;;23.65;10.88;;;;;;;16.09;67.40;99528.25;5092355;28;20036;-46
2023/10/01 01:32:13;;;;;;;18.17;8.95;;;;;;;16.32;68.70;99526.88;5093579;28;20027;-46
2023/10/01 01:34:40;;;;;;;31.42;12.95;;;;;;;16.36;68.46;99530.69;5093733;28;20028;-46
2023/10/01 01:37:07;;;;;;;26.73;15.95;;;;;;;16.68;68.07;99528.78;5093647;28;20085;-47
2023/10/01 01:39:42;;;;;;;28.08;14.23;;;;;;;16.85;67.84;99526.38;5092119;28;20393;-46
2023/10/01 01:42:08;;;;;;;18.42;11.23;;;;;;;17.19;69.58;99526.81;5093309;28;20447;-46
2023/10/01 01:44:34;;;;;;;28.25;13.18;;;;;;;16.98;70.79;99528.06;5093312;28;20036;-46
2023/10/01 01:47:00;;;;;;;30.42;11.73;;;;;;;16.60;72.11;99520.28;5091931;28;20028;-46
2023/10/01 01:49:26;;;;;;;28.15;13.68;;;;;;;16.11;73.21;99533.34;5092299;28;20443;-46
2023/10/01 01:51:57;;;;;;;22.45;12.05;;;;;;;15.72;75.37;99522.81;5093191;28;20099;-46
2023/10/01 01:54:27;;;;;;;21.90;10.85;;;;;;;15.43;76.55;99528.63;5093126;28;20028;-46
2023/10/01 01:56:55;;;;;;;25.77;13.02;;;;;;;15.13;78.31;99532.63;5093106;28;20055;-46
2023/10/01 01:59:24;;;;;;;58.95;49.83;;;;;;;15.00;79.39;99527.38;5093030;28;20024;-46
2023/10/01 02:01:51;;;;;;;57.83;47.58;;;;;;;14.94;80.67;99526.38;5093193;28;20024;-46
2023/10/01 02:04:18;;;;;;;29.42;15.52;;;;;;;15.10;81.57;99534.88;5091949;28;20465;-46
2023/10/01 02:06:45;;;;;;;26.48;18.13;;;;;;;15.30;82.53;99538.25;5092978;28;20381;-47
2023/10/01 02:09:19;;;;;;;27.23;15.93;;;;;;;15.61;82.42;99530.56;5092759;28;20056;-47
2023/10/01 02:11:47;;;;;;;17.58;9.27;;;;;;;15.85;80.79;99527.19;5093123;28;20397;-47
2023/10/01 02:14:30;;;;;;;20.98;9.10;;;;;;;15.50;77.37;99529.41;5092736;28;20020;-46
2023/10/01 02:17:02;;;;;;;21.88;10.20;;;;;;;15.26;79.84;99534.41;5091498;28;20489;-46
2023/10/01 02:19:29;;;;;;;22.25;10.25;;;;;;;15.35;80.66;99534.97;5092775;28;20027;-47
2023/10/01 02:22:05;;;;;;;20.65;9.82;;;;;;;15.52;80.56;99533.47;5091329;28;20031;-46
2023/10/01 02:25:10;;;;;;;22.30;10.73;;;;;;;15.53;80.21;99527.16;5092611;28;20063;-46
2023/10/01 02:27:26;;;;;;;25.35;10.18;;;;;;;15.75;79.66;99521.56;5090230;28;20039;-46
2023/10/01 02:32:49;;;;;;;18.02;9.00;;;;;;;15.51;78.82;99518.63;5092509;28;20085;-46
2023/10/01 02:35:34;;;;;;;23.73;10.30;;;;;;;15.41;78.99;99515.59;5092333;28;20024;-47
2023/10/01 02:38:03;;;;;;;20.50;9.25;;;;;;;15.49;80.35;99515.38;5091179;28;20082;-47
2023/10/01 02:40:36;;;;;;;20.95;10.75;;;;;;;15.62;79.15;99517.13;5090980;28;20032;-46
2023/10/01 02:43:07;;;;;;;23.80;10.13;;;;;;;15.55;78.53;99516.34;5092381;28;20139;-46
2023/10/01 02:45:35;;;;;;;18.70;10.30;;;;;;;15.50;79.11;99506.41;5092268;28;20425;-46
2023/10/01 02:48:18;;;;;;;21.73;10.70;;;;;;;15.71;79.31;99505.25;5092263;28;20017;-46
2023/10/01 02:50:54;;;;;;;24.08;9.38;;;;;;;16.05;77.84;99505.06;5090914;28;20089;-47
2023/10/01 02:53:22;;;;;;;21.30;9.38;;;;;;;16.16;76.21;99507.84;5090260;28;20035;-46
2023/10/01 02:55:51;;;;;;;18.42;9.88;;;;;;;16.19;74.54;99506.56;5092089;28;20039;-46
2023/10/01 02:58:20;;;;;;;22.20;10.77;;;;;;;16.02;73.28;99502.84;5092358;28;20055;-46
2023/10/01 03:00:50;;;;;;;23.25;10.40;;;;;;;15.81;73.74;99496.06;5091982;28;20109;-46
2023/10/01 03:03:17;;;;;;;20.30;8.85;;;;;;;15.64;73.88;99504.50;5092322;28;20051;-46
2023/10/01 03:05:49;;;;;;;19.77;10.23;;;;;;;15.67;74.70;99503.25;5092026;28;20020;-46
2023/10/01 03:11:03;;;;;;;24.40;10.43;;;;;;;16.10;74.06;99510.53;5091741;28;20129;-47
2023/10/01 03:13:32;;;;;;;23.67;9.90;;;;;;;16.38;73.18;99515.41;5092039;28;20401;-46
2023/10/01 03:18:47;;;;;;;23.35;9.85;;;;;;;16.66;70.20;99516.75;5091894;28;20066;-47
2023/10/01 03:21:19;;;;;;;18.45;9.35;;;;;;;16.55;70.41;99513.78;5091797;28;20012;-47
2023/10/01 03:23:54;;;;;;;20.38;9.45;;;;;;;16.57;70.49;99522.34;5090566;28;20032;-46
2023/10/01 03:26:21;;;;;;;;;;;;;;;16.76;70.85;99523.19;5090882;28;20035;-47
2023/10/01 03:31:31;;;;;;;15.32;8.30;;;;;;;16.88;67.31;99520.66;5092015;28;20028;-46
2023/10/01 03:33:58;;;;;;;25.95;10.43;;;;;;;16.43;68.05;99514.75;5091678;28;20386;-47
2023/10/01 03:36:25;;;;;;;25.85;10.20;;;;;;;16.39;69.22;99519.66;5091606;28;20094;-47
2023/10/01 03:38:59;;;;;;;15.73;8.23;;;;;;;16.26;68.49;99511.81;5091623;28;20022;-47
2023/10/01 03:41:27;;;;;;;24.50;9.38;;;;;;;16.02;68.78;99508.13;5090760;28;20051;-46
2023/10/01 03:43:55;;;;;;;21.02;8.32;;;;;;;15.63;68.93;99505.50;5091631;28;20024;-46
2023/10/01 03:48:59;;;;;;;17.25;9.15;;;;;;;15.20;71.82;99506.16;5091609;28;20036;-46
2023/10/01 03:54:20;;;;;;;24.27;9.43;;;;;;;15.04;72.60;99507.44;5091641;28;20035;-46
2023/10/01 03:56:56;;;;;;;19.33;9.65;;;;;;;15.17;72.79;99510.03;5091523;28;20028;-46
2023/10/01 03:59:27;;;;;;;35.75;18.85;;;;;;;15.17;73.01;99503.91;5091447;28;20039;-46
2023/10/01 04:01:59;;;;;;;20.10;9.80;;;;;;;15.33;72.57;99507.91;5091764;28;20028;-46
2023/10/01 04:04:31;;;;;;;21.45;9.30;;;;;;;15.38;72.26;99506.28;5092199;28;20027;-46
2023/10/01 04:07:00;;;;;;;28.67;10.90;;;;;;;15.16;71.64;99511.03;5095277;28;20020;-46
2023/10/01 04:09:28;;;;;;;21.83;10.65;;;;;;;15.11;72.63;99505.59;5094993;28;20101;-46
2023/10/01 04:12:18;;;;;;;23.77;11.23;;;;;;;15.23;72.84;99505.75;5095246;28;20032;-46
2023/10/01 04:14:48;;;;;;;;;;;;;;;15.28;72.46;99507.75;5095348;28;20040;-46
2023/10/01 04:17:35;;;;;;;18.40;8.85;;;;;;;15.19;71.92;99509.81;5095432;28;20429;-46
2023/10/01 04:20:12;;;;;;;22.67;8.77;;;;;;;15.21;72.34;99512.25;5095028;28;20183;-46
2023/10/01 04:22:40;;;;;;;18.05;9.68;;;;;;;15.27;72.30;99501.66;5095010;28;20032;-46
2023/10/01 04:25:11;;;;;;;23.23;9.60;;;;;;;15.16;71.47;99511.03;5094884;28;20020;-46
2023/10/01 04:27:45;;;;;;;25.98;21.20;;;;;;;14.87;72.24;99504.44;5093596;28;20775;-46
2023/10/01 04:30:11;;;;;;;24.42;10.20;;;;;;;14.78;73.14;99516.25;5095100;28;20398;-46
2023/10/01 04:32:39;;;;;;;20.65;9.80;;;;;;;14.91;73.55;99512.75;5094847;28;20034;-46
2023/10/01 04:35:17;;;;;;;22.77;10.57;;;;;;;15.23;73.26;99516.31;5094604;28;20024;-47
2023/10/01 04:37:44;;;;;;;20.60;9.65;;;;;;;15.60;72.34;99513.91;5094896;28;20032;-46
2023/10/01 04:43:08;;;;;;;19.27;9.32;;;;;;;15.30;70.85;99511.00;5094931;28;20105;-46
2023/10/01 04:45:40;;;;;;;19.25;9.52;;;;;;;14.99;71.60;99515.19;5094621;28;20567;-46
2023/10/01 04:48:16;;;;;;;20.75;9.40;;;;;;;14.94;72.16;99513.16;5093323;28;20077;-46
2023/10/01 04:50:46;;;;;;;22.02;10.48;;;;;;;14.62;71.87;99514.88;5076757;28;20031;-46
2023/10/01 04:53:14;;;;;;;20.30;10.70;;;;;;;14.52;73.00;99515.25;5094334;28;20016;-46
2023/10/01 04:55:41;;;;;;;18.80;9.63;;;;;;;14.47;73.41;99508.97;5093064;28;20047;-46
2023/10/01 04:58:12;;;;;;;22.48;9.38;;;;;;;14.39;72.92;99508.16;5092996;28;20482;-46
2023/10/01 05:00:45;;;;;;;17.63;9.45;;;;;;;14.11;73.05;99518.94;5094295;28;20042;-46
2023/10/01 05:03:14;;;;;;;19.92;9.80;;;;;;;13.78;73.83;99511.81;5094163;28;20482;-46
2023/10/01 05:05:42;;;;;;;22.52;10.48;;;;;;;13.46;75.26;99521.28;5094408;28;20043;-46
2023/10/01 05:08:15;;;;;;;19.77;10.30;;;;;;;13.17;76.52;99517.88;5094105;28;20074;-46
2023/10/01 05:10:53;;;;;;;21.75;9.98;;;;;;;13.02;77.61;99525.13;5093904;28;20086;-46
2023/10/01 05:13:20;;;;;;;24.65;9.48;;;;;;;13.10;78.20;99524.13;5093923;28;20024;-46
2023/10/01 05:15:49;;;;;;;22.23;9.60;;;;;;;13.25;78.33;99522.16;5093398;28;20074;-46
2023/10/01 05:18:19;;;;;;;46.85;40.60;;;;;;;13.82;79.40;99524.59;5092612;28;20486;-46
2023/10/01 05:20:48;;;;;;;23.08;10.32;;;;;;;14.51;77.83;99518.91;5093908;28;20030;-46
2023/10/01 05:23:15;;;;;;;21.10;9.80;;;;;;;15.07;75.33;99522.91;5093914;28;20027;-46
2023/10/01 05:25:45;;;;;;;27.48;11.27;;;;;;;15.31;73.44;99523.19;5092506;28;20035;-46
2023/10/01 05:28:31;;;;;;;26.95;12.02;;;;;;;15.47;72.06;99519.25;5093751;28;20078;-46
2023/10/01 05:31:00;;;;;;;;;;;;;;;15.46;71.32;99515.00;5094035;28;20115;-46
2023/10/01 05:33:27;;;;;;;21.50;10.35;;;;;;;15.67;71.13;99517.28;5092241;28;20004;-46
2023/10/01 05:36:04;;;;;;;25.23;10.57;;;;;;;15.97;69.88;99519.38;5093482;28;20028;-46
2023/10/01 05:38:34;;;;;;;20.95;9.77;;;;;;;16.17;68.95;99521.88;5093608;28;20031;-46
2023/10/01 05:41:13;;;;;;;18.40;8.75;;;;;;;16.30;67.82;99529.72;5092471;28;20492;-46
2023/10/01 05:43:43;;;;;;;20.92;9.82;;;;;;;16.27;67.51;99521.41;5093518;28;20027;-46
2023/10/01 05:46:12;;;;;;;19.52;9.90;;;;;;;16.18;67.27;99532.25;5093443;28;20047;-47
2023/10/01 05:48:39;;;;;;;19.77;9.10;;;;;;;16.18;67.04;99540.19;5093356;28;20115;-47
2023/10/01 05:51:11;;;;;;;21.90;9.60;;;;;;;16.21;66.87;99532.84;5092264;28;20024;-47
2023/10/01 05:53:37;;;;;;;18.98;10.02;;;;;;;16.29;66.74;99535.22;5093281;28;20035;-47
2023/10/01 05:56:11;;;;;;;17.90;10.20;;;;;;;16.53;66.34;99537.03;5093223;28;20055;-46
2023/10/01 05:58:38;;;;;;;20.27;9.65;;;;;;;16.70;65.03;99545.25;5093228;28;20028;-46
2023/10/01 06:01:13;;;;;;;19.35;9.68;;;;;;;16.22;64.51;99542.41;5093087;28;20031;-46
2023/10/01 06:03:40;;;;;;;;;;;;;;;16.10;66.71;99543.13;5093452;28;20469;-46
2023/10/01 06:06:08;;;;;;;21.25;10.27;;;;;;;16.71;65.35;99552.16;5092889;28;19908;-46
2023/10/01 06:08:45;;;;;;;23.00;10.95;;;;;;;17.30;63.30;99546.47;5092901;28;20030;-47
2023/10/01 06:11:16;;;;;;;20.75;9.25;;;;;;;17.68;61.62;99548.00;5093184;28;20405;-47
2023/10/01 06:13:49;;;;;;;77.85;70.50;;;;;;;18.19;60.64;99544.03;5092765;28;20039;-47
2023/10/01 06:16:25;;;;;;;26.50;11.18;;;;;;;18.75;58.79;99544.50;5093074;28;20031;-46
2023/10/01 06:18:51;;;;;;;20.55;10.13;;;;;;;19.07;56.79;99542.28;5092831;28;20063;-47
2023/10/01 06:21:23;;;;;;;27.17;10.10;;;;;;;19.34;56.24;99531.13;5091320;28;20028;-47
2023/10/01 06:23:52;;;;;;;22.67;10.75;;;;;;;19.72;55.06;99535.84;5092633;28;20032;-44
2023/10/01 06:26:29;;;;;;;25.45;11.20;;;;;;;20.20;53.87;99527.56;5091118;28;20024;-44
2023/10/01 06:28:57;;;;;;;21.63;10.27;;;;;;;20.74;52.36;99534.00;5092209;28;20103;-44
2023/10/01 06:31:23;;;;;;;16.90;9.70;;;;;;;21.09;50.79;99540.06;5092583;28;20032;-44
2023/10/01 06:33:53;;;;;;;22.63;9.98;;;;;;;20.97;50.20;99536.66;5092359;28;20077;-44
2023/10/01 06:36:23;;;;;;;20.30;10.13;;;;;;;20.40;51.61;99543.88;5092393;28;20070;-45
2023/10/01 06:38:54;;;;;;;23.08;10.68;;;;;;;19.90;52.37;99547.31;5092408;28;20020;-44
2023/10/01 06:41:25;;;;;;;22.45;10.52;;;;;;;19.47;53.74;99540.66;5092388;28;20028;-44
2023/10/01 06:43:56;;;;;;;18.33;9.63;;;;;;;19.39;54.68;99543.72;5092413;28;20027;-44
2023/10/01 06:46:27;;;;;;;28.13;10.52;;;;;;;19.79;54.22;99540.22;5092351;28;20058;-44
2023/10/01 06:48:56;;;;;;;21.13;10.10;;;;;;;20.44;52.99;99545.00;5092300;28;20457;-44
2023/10/01 06:51:24;;;;;;;19.52;10.00;;;;;;;21.17;51.32;99544.94;5092190;28;20024;-44
2023/10/01 06:54:05;;;;;;;16.42;10.43;;;;;;;21.74;49.20;99541.03;5092027;28;20494;-44
2023/10/01 06:56:33;;;;;;;26.95;10.45;;;;;;;22.22;48.12;99543.88;5092145;28;20028;-45
2023/10/01 07:01:46;;;;;;;21.52;10.50;;;;;;;23.32;45.58;99541.31;5092064;28;20036;-45
2023/10/01 07:04:17;;;;;;;18.58;10.40;;;;;;;23.82;44.37;99543.56;5092021;28;20059;-45
2023/10/01 07:06:48;;;;;;;25.20;10.48;;;;;;;24.16;43.40;99537.69;5092279;28;20041;-45
2023/10/01 07:12:09;;;;;;;22.20;10.27;;;;;;;24.84;42.15;99538.13;5082575;28;20042;-45
2023/10/01 07:14:38;;;;;;;22.23;10.48;;;;;;;24.95;41.49;99535.41;5091824;28;20107;-45
2023/10/01 07:17:15;;;;;;;28.90;11.55;;;;;;;24.68;41.91;99533.88;5090667;28;20109;-45
2023/10/01 07:19:45;;;;;;;21.83;9.43;;;;;;;24.39;42.37;99539.81;5092107;28;20113;-45
2023/10/01 07:22:15;;;;;;;20.88;10.35;;;;;;;24.25;42.77;99544.94;5091771;28;20623;-45
2023/10/01 07:24:44;;;;;;;21.35;10.32;;;;;;;24.26;42.44;99546.53;5091820;28;20572;-45
2023/10/01 07:27:11;;;;;;;28.00;14.27;;;;;;;24.60;42.12;99542.50;5091765;28;20415;-45
2023/10/01 07:29:43;;;;;;;25.23;15.90;;;;;;;24.89;41.38;99545.34;5092005;28;20039;-44
2023/10/01 07:32:14;;;;;;;19.63;11.30;;;;;;;24.84;41.33;99548.06;5091708;28;20114;-45
2023/10/01 07:34:42;;;;;;;21.05;11.43;;;;;;;24.80;41.46;99542.44;5090378;28;20032;-44
2023/10/01 07:37:23;;;;;;;20.98;10.88;;;;;;;25.31;41.09;99552.19;5091669;28;20026;-45
2023/10/01 07:39:55;;;;;;;27.45;12.23;;;;;;;25.52;40.44;99548.31;5094863;28;20509;-45
2023/10/01 07:42:27;;;;;;;18.88;10.30;;;;;;;25.57;39.84;99552.06;5095671;28;20032;-45
2023/10/01 07:44:53;;;;;;;16.52;9.18;;;;;;;25.68;39.52;99551.72;5095765;28;20023;-45
2023/10/01 07:47:31;;;;;;;21.27;10.10;;;;;;;25.97;39.30;99553.69;5095672;28;20020;-45
2023/10/01 07:50:03;;;;;;;18.40;10.68;;;;;;;26.57;38.05;99545.34;5095586;28;20397;-45
2023/10/01 07:52:29;;;;;;;22.65;10.68;;;;;;;27.02;37.66;99539.75;5095585;28;20554;-45
2023/10/01 07:54:57;;;;;;;21.75;9.65;;;;;;;27.43;36.88;99545.47;5095427;28;20073;-45
2023/10/01 07:57:27;;;;;;;18.23;10.25;;;;;;;27.95;35.94;99542.00;5095459;28;20024;-45
2023/10/01 08:00:24;;;;;;;17.45;9.93;;;;;;;28.26;35.22;99545.00;5095702;28;20139;-45
2023/10/01 08:03:28;;;;;;;26.10;11.98;;;;;;;27.61;35.92;99553.84;5095244;28;20043;-45
2023/10/01 08:05:33;;;;;;;30.40;12.00;;;;;;;26.88;37.42;99547.72;5095219;28;20032;-45
2023/10/01 08:07:59;;;;;;;25.58;12.45;;;;;;;26.62;38.23;99553.41;5095224;28;20032;-45
2023/10/01 08:10:29;;;;;;;21.98;11.45;;;;;;;26.50;38.67;99556.47;5094932;28;20097;-45
2023/10/01 08:15:29;;;;;;;22.85;11.10;;;;;;;27.02;38.04;99545.94;5111119;28;20120;-45
2023/10/01 08:18:26;;;;;;;28.73;12.77;;;;;;;27.95;37.00;99536.63;5095203;28;20099;-45
2023/10/01 08:21:02;;;;;;;18.27;10.70;;;;;;;28.95;35.35;99547.78;5094599;28;20101;-45
2023/10/01 08:23:31;;;;;;;16.27;10.50;;;;;;;30.03;33.59;99542.75;5095054;28;20562;-45
2023/10/01 08:25:58;;;;;;;22.83;11.45;;;;;;;31.31;31.53;99533.03;5095150;28;20397;-45
2023/10/01 08:31:01;;;;;;;19.58;11.52;;;;;;;32.48;29.27;99536.63;5093646;28;20105;-46
2023/10/01 08:33:32;;;;;;;22.60;11.27;;;;;;;32.82;28.73;99543.84;5094767;28;20501;-46
2023/10/01 08:36:14;;;;;;;21.45;11.70;;;;;;;32.55;29.23;99550.50;5094781;28;20085;-46
2023/10/01 08:38:47;;;;;;;20.63;9.95;;;;;;;32.63;29.25;99549.66;5095024;28;20383;-46
2023/10/01 08:41:33;;;;;;;17.83;11.10;;;;;;;32.79;29.06;99552.63;5094722;28;20032;-46
2023/10/01 08:44:09;;;;;;;21.73;10.80;;;;;;;32.98;29.32;99554.94;5094581;28;20016;-46
2023/10/01 08:46:39;;;;;;;18.25;10.75;;;;;;;33.11;28.09;99558.56;5094612;28;20055;-46
2023/10/01 08:52:21;;;;;;;16.73;10.35;;;;;;;33.61;27.95;99559.66;5070377;28;20120;-46
2023/10/01 08:54:53;;;;;;;16.48;11.20;;;;;;;33.03;28.09;99551.22;5094376;28;20072;-45
2023/10/01 08:57:36;;;;;;;18.00;11.50;;;;;;;32.58;28.74;99552.59;5094698;28;20028;-46
2023/10/01 09:00:28;;;;;;;20.13;12.23;;;;;;;32.61;29.15;99551.91;5094279;28;20028;-46
2023/10/01 09:02:55;;;;;;;25.42;11.80;;;;;;;33.17;28.61;99545.56;5092911;28;20040;-46
2023/10/01 09:05:25;;;;;;;26.02;11.88;;;;;;;33.63;28.00;99550.03;5094149;28;20562;-46
2023/10/01 09:10:50;;;;;;;15.50;10.00;;;;;;;33.97;27.24;99550.84;5107337;28;20070;-46
2023/10/01 09:13:21;;;;;;;23.33;11.80;;;;;;;34.69;26.44;99538.84;5094295;28;20390;-46
2023/10/01 09:15:55;;;;;;;18.98;12.07;;;;;;;34.93;26.19;99540.78;5094084;28;20047;-46
2023/10/01 09:18:25;;;;;;;25.73;12.60;;;;;;;35.04;25.83;99541.91;5092677;28;20039;-46
2023/10/01 09:21:08;;;;;;;19.73;11.10;;;;;;;35.20;25.39;99542.81;5093836;28;20032;-46
2023/10/01 09:24:31;;;;;;;19.92;11.43;;;;;;;35.01;25.78;99542.59;5093905;28;20020;-46
2023/10/01 09:26:56;;;;;;;20.48;11.55;;;;;;;34.33;26.24;99551.28;5093527;28;20028;-46
2023/10/01 09:29:25;;;;;;;24.45;12.15;;;;;;;33.70;27.32;99546.00;5092454;28;20060;-46
2023/10/01 09:31:56;;;;;;;19.00;11.70;;;;;;;33.75;27.17;99551.25;5092323;28;20511;-46
2023/10/01 09:34:31;;;;;;;30.90;15.43;;;;;;;33.77;27.58;99554.41;5093648;28;20028;-46
2023/10/01 09:37:53;;;;;;;24.52;12.63;;;;;;;34.23;26.78;99563.44;5093513;28;20118;-46
2023/10/01 09:40:12;;;;;;;19.92;11.70;;;;;;;34.57;26.60;99550.53;5090252;28;20032;-46
2023/10/01 09:42:45;;;;;;;19.17;11.48;;;;;;;34.80;26.24;99543.53;5092222;28;20077;-46
2023/10/01 09:45:27;;;;;;;14.47;10.33;;;;;;;35.04;26.05;99546.56;5093422;28;20020;-46
2023/10/01 09:48:04;;;;;;;21.08;11.35;;;;;;;35.19;25.49;99548.59;5093425;28;20059;-46
2023/10/01 09:50:44;;;;;;;18.27;11.80;;;;;;;35.06;25.75;99553.28;5093280;28;20064;-46
2023/10/01 09:53:24;;;;;;;19.73;11.85;;;;;;;34.89;26.01;99550.78;5093302;28;20032;-46
2023/10/01 09:56:00;;;;;;;21.55;12.38;;;;;;;35.20;25.70;99547.47;5091880;28;20064;-46
2023/10/01 09:58:28;;;;;;;18.17;11.40;;;;;;;35.64;24.99;99552.22;5091925;28;20028;-46
2023/10/01 10:00:55;;;;;;;25.73;13.52;;;;;;;36.06;24.67;99536.25;5093026;28;20051;-46
2023/10/01 10:03:22;;;;;;;24.85;12.23;;;;;;;36.30;24.52;99540.78;5093029;28;20418;-46
2023/10/01 10:05:48;;;;;;;18.05;11.75;;;;;;;36.42;24.19;99537.16;5091681;28;20043;-46
2023/10/01 10:08:20;;;;;;;24.00;11.55;;;;;;;36.49;23.84;99542.03;5091692;28;20020;-46
2023/10/01 10:10:52;;;;;;;18.38;11.45;;;;;;;36.82;23.84;99532.66;5087141;28;20532;-46
2023/10/01 10:13:36;;;;;;;18.83;10.93;;;;;;;37.09;23.14;99536.38;5092947;28;20105;-46
2023/10/01 10:19:09;;;;;;;26.15;12.57;;;;;;;37.46;23.81;99528.56;5092901;28;19919;-46
2023/10/01 10:22:05;;;;;;;22.53;11.87;;;;;;;37.72;23.22;99533.41;5093056;28;20393;-46
2023/10/01 10:24:31;;;;;;;22.85;12.40;;;;;;;38.04;22.34;99527.72;5092768;28;20038;-49
2023/10/01 10:27:08;;;;;;;16.38;10.55;;;;;;;38.23;22.02;99520.63;5092655;28;20028;-49
2023/10/01 10:29:46;;;;;;;17.17;10.90;;;;;;;38.04;22.78;99524.19;5092673;28;20058;-49
2023/10/01 10:32:16;;;;;;;21.95;12.57;;;;;;;38.26;22.74;99528.91;5092529;28;20047;-48
2023/10/01 10:35:16;;;;;;;24.85;12.48;;;;;;;38.21;22.82;99520.19;5092428;28;20394;-49
2023/10/01 10:37:53;;;;;;;24.63;12.13;;;;;;;38.05;22.85;99517.53;5059381;28;20039;-48
2023/10/01 10:43:07;;;;;;;21.70;12.32;;;;;;;38.15;22.83;99519.69;5092600;28;20390;-49
2023/10/01 10:45:44;;;;;;;18.95;12.20;;;;;;;38.50;22.81;99522.25;5092219;28;20034;-49
2023/10/01 10:48:16;;;;;;;17.88;10.25;;;;;;;38.91;22.30;99513.44;5092571;28;20107;-48
2023/10/01 10:50:46;;;;;;;12.93;9.55;;;;;;;38.73;22.03;99513.19;5092479;28;20445;-48
2023/10/01 10:53:21;;;;;;;16.73;10.38;;;;;;;38.33;22.07;99507.06;5092229;28;20050;-49
2023/10/01 10:55:56;;;;;;;20.27;11.30;;;;;;;37.86;23.18;99501.94;5092108;28;20031;-48
2023/10/01 10:58:28;;;;;;;16.65;10.48;;;;;;;37.67;23.06;99503.59;5092134;28;20440;-48
2023/10/01 11:00:55;;;;;;;14.43;9.90;;;;;;;37.18;23.01;99504.13;5092404;28;20059;-48
2023/10/01 11:06:47;;;;;;;17.83;10.50;;;;;;;36.80;24.11;99505.63;5089743;28;20079;-49
2023/10/01 11:09:24;;;;;;;20.42;11.27;;;;;;;36.78;24.05;99500.53;5092319;28;20028;-48
2023/10/01 11:11:52;;;;;;;16.55;10.55;;;;;;;36.85;23.89;99497.16;5091694;28;20056;-49
2023/10/01 11:14:19;;;;;;;15.10;10.60;;;;;;;37.01;24.07;99497.13;5090088;28;20044;-49
2023/10/01 11:16:51;;;;;;;19.00;11.52;;;;;;;36.96;24.14;99494.66;5090499;28;20113;-49
2023/10/01 11:19:35;;;;;;;13.88;9.98;;;;;;;36.93;23.69;99498.13;5090563;28;20032;-49
2023/10/01 11:22:04;;;;;;;14.57;9.85;;;;;;;36.77;23.95;99496.22;5092161;28;20035;-48
2023/10/01 11:24:32;;;;;;;21.88;10.63;;;;;;;36.51;24.96;99490.50;5091823;28;20035;-48
2023/10/01 11:27:45;;;;;;;16.00;9.35;;;;;;;36.57;24.80;99494.53;5091844;28;20126;-48
2023/10/01 11:30:12;;;;;;;13.40;9.20;;;;;;;36.73;24.57;99497.28;5085915;28;20407;-48
2023/10/01 11:33:12;;;;;;;15.77;10.05;;;;;;;36.64;24.40;99489.25;5090415;28;20105;-48
2023/10/01 11:35:59;;;;;;;19.02;10.65;;;;;;;36.14;24.93;99488.00;5091958;28;20115;-48
2023/10/01 11:38:28;;;;;;;16.33;9.95;;;;;;;36.13;25.01;99486.44;5091779;28;20111;-49
2023/10/01 11:41:09;;;;;;;19.83;11.88;;;;;;;36.00;25.62;99483.00;5091631;28;20070;-48
2023/10/01 11:43:58;;;;;;;23.35;11.45;;;;;;;36.19;25.11;99474.91;5091654;28;20028;-48
2023/10/01 11:47:30;;;;;;;19.00;10.68;;;;;;;36.47;25.12;99476.75;5091635;28;20489;-48
2023/10/01 11:49:17;;;;;;;12.75;8.80;;;;;;;36.52;24.69;99472.94;5085751;28;20032;-49
2023/10/01 11:51:50;;;;;;;15.07;9.57;;;;;;;36.04;25.24;99470.22;5091573;28;20478;-48
2023/10/01 11:54:21;;;;;;;15.68;9.00;;;;;;;35.86;25.36;99458.84;5091811;28;20035;-48
2023/10/01 11:57:07;;;;;;;19.55;10.45;;;;;;;35.94;25.40;99452.41;5091531;28;20107;-48
2023/10/01 11:59:36;;;;;;;12.55;9.40;;;;;;;35.69;25.49;99457.22;5091562;28;20024;-48
2023/10/01 12:02:21;;;;;;;17.05;10.30;;;;;;;35.81;25.62;99453.63;5090160;28;20035;-48
2023/10/01 12:04:56;;;;;;;15.60;9.90;;;;;;;36.18;25.38;99447.91;5091509;28;20030;-48
2023/10/01 12:07:26;;;;;;;13.55;9.13;;;;;;;36.31;24.89;99446.69;5091447;28;20028;-48
2023/10/01 12:09:55;;;;;;;23.15;10.50;;;;;;;36.47;25.38;99451.34;5091440;28;20056;-48
2023/10/01 12:12:27;;;;;;;21.48;10.02;;;;;;;36.50;25.05;99439.69;5090111;28;20049;-49
2023/10/01 12:14:55;;;;;;;17.05;9.88;;;;;;;36.46;24.79;99436.84;5091652;28;20035;-48
2023/10/01 12:17:28;;;;;;;13.00;9.88;;;;;;;35.91;25.25;99436.72;5090335;28;20085;-49
2023/10/01 12:20:00;;;;;;;19.52;10.95;;;;;;;35.43;26.24;99435.81;5090083;28;20035;-49
2023/10/01 12:22:28;;;;;;;14.95;9.00;;;;;;;35.72;25.92;99429.22;5091252;28;20032;-48
2023/10/01 12:24:58;;;;;;;35.45;12.50;;;;;;;35.82;25.64;99438.03;5091233;28;20531;-48
2023/10/01 12:27:37;;;;;;;18.98;10.93;;;;;;;36.04;25.93;99426.50;5094964;28;20038;-48
2023/10/01 12:30:11;;;;;;;16.50;10.70;;;;;;;36.04;25.80;99429.22;5094914;28;20051;-48
2023/10/01 12:32:41;;;;;;;22.17;10.90;;;;;;;36.11;25.56;99421.19;5093655;28;20028;-49